Map

Track Data

SID SEASON NUMBER BASIN SUBBASIN NAME ISO_TIME NATURE LAT LON WMO_WIND WMO_PRES WMO_AGENCY TRACK_TYPE DIST2LAND LANDFALL IFLAG USA_AGENCY USA_ATCF_ID USA_LAT USA_LON USA_RECORD USA_STATUS USA_WIND USA_PRES USA_SSHS USA_R34_NE USA_R34_SE USA_R34_SW USA_R34_NW USA_R50_NE USA_R50_SE USA_R50_SW USA_R50_NW USA_R64_NE USA_R64_SE USA_R64_SW USA_R64_NW USA_POCI USA_ROCI USA_RMW USA_EYE TOKYO_LAT TOKYO_LON TOKYO_GRADE TOKYO_WIND TOKYO_PRES TOKYO_R50_DIR TOKYO_R50_LONG TOKYO_R50_SHORT TOKYO_R30_DIR TOKYO_R30_LONG TOKYO_R30_SHORT TOKYO_LAND CMA_LAT CMA_LON CMA_CAT CMA_WIND CMA_PRES HKO_LAT HKO_LON HKO_CAT HKO_WIND HKO_PRES NEWDELHI_LAT NEWDELHI_LON NEWDELHI_GRADE NEWDELHI_WIND NEWDELHI_PRES NEWDELHI_CI NEWDELHI_DP NEWDELHI_POCI REUNION_LAT REUNION_LON REUNION_TYPE REUNION_WIND REUNION_PRES REUNION_TNUM REUNION_CI REUNION_RMW REUNION_R34_NE REUNION_R34_SE REUNION_R34_SW REUNION_R34_NW REUNION_R50_NE REUNION_R50_SE REUNION_R50_SW REUNION_R50_NW REUNION_R64_NE REUNION_R64_SE REUNION_R64_SW REUNION_R64_NW BOM_LAT BOM_LON BOM_TYPE BOM_WIND BOM_PRES BOM_TNUM BOM_CI BOM_RMW BOM_R34_NE BOM_R34_SE BOM_R34_SW BOM_R34_NW BOM_R50_NE BOM_R50_SE BOM_R50_SW BOM_R50_NW BOM_R64_NE BOM_R64_SE BOM_R64_SW BOM_R64_NW BOM_ROCI BOM_POCI BOM_EYE BOM_POS_METHOD BOM_PRES_METHOD NADI_LAT NADI_LON NADI_CAT NADI_WIND NADI_PRES WELLINGTON_LAT WELLINGTON_LON WELLINGTON_WIND WELLINGTON_PRES DS824_LAT DS824_LON DS824_STAGE DS824_WIND DS824_PRES TD9636_LAT TD9636_LON TD9636_STAGE TD9636_WIND TD9636_PRES TD9635_LAT TD9635_LON TD9635_WIND TD9635_PRES TD9635_ROCI NEUMANN_LAT NEUMANN_LON NEUMANN_CLASS NEUMANN_WIND NEUMANN_PRES MLC_LAT MLC_LON MLC_CLASS MLC_WIND MLC_PRES USA_GUST BOM_GUST BOM_GUST_PER REUNION_GUST REUNION_GUST_PER USA_SEAHGT USA_SEARAD_NE USA_SEARAD_SE USA_SEARAD_SW USA_SEARAD_NW STORM_SPEED STORM_DIR
1990164N14112 1990 37 WP MM NOT_NAMED 1990-06-13 00:00:00 TS 14.0000 112.000 main 291 291 __O___________ -1 14.0000 112.000 1 23 1002 7 133
1990164N14112 1990 37 WP MM NOT_NAMED 1990-06-13 03:00:00 TS 13.7726 112.255 main 319 305 __P___________ -1 13.7726 112.255 1 26 1001 4 136
1990164N14112 1990 37 WP MM NOT_NAMED 1990-06-13 06:00:00 TS 13.7500 112.250 main 319 316 O_O___________ jtwc_wp WP041990 14.2000 111.500 15 -1 13.6000 112.500 1 29 1000 1 94
1990164N14112 1990 37 WP MM NOT_NAMED 1990-06-13 09:00:00 TS 13.7650 112.373 main 329 329 P_P___________ WP041990 14.2550 111.650 17 -1 13.5199 112.735 1 29 1000 2 68
1990164N14112 1990 37 WP MM NOT_NAMED 1990-06-13 12:00:00 TS 13.8429 112.486 main 340 340 O_O___________ jtwc_wp WP041990 14.3000 111.800 20 -1 13.5000 113.000 1 29 1000 3 66
1990164N14112 1990 37 WP MM NOT_NAMED 1990-06-13 15:00:00 TS 13.8888 112.658 main 363 363 P_P___________ WP041990 14.3225 111.950 20 -1 13.4551 113.365 1 29 1000 4 82
1990164N14112 1990 37 WP MM NOT_NAMED 1990-06-13 18:00:00 TS 13.9000 112.900 main 384 384 O_O___________ jtwc_wp WP041990 14.3000 112.100 20 -1 13.5000 113.700 1 29 1000 5 81
1990164N14112 1990 37 WP MM NOT_NAMED 1990-06-13 21:00:00 TS 13.9599 113.117 main 408 408 P_P___________ WP041990 14.2075 112.258 22 -1 13.7123 113.977 1 29 1000 3 53
1990164N14112 1990 37 WP MM NOT_NAMED 1990-06-14 00:00:00 TS 14.1000 113.167 main 421 400 O_OO__________ jtwc_wp WP041990 14.1000 112.400 25 -1 14.0000 114.000 1 29 1000 14.5000 112.900 TD 25 1000 3 340
1990164N14112 1990 37 WP MM NOT_NAMED 1990-06-14 03:00:00 TS 14.2196 113.022 main 400 380 P_PP__________ WP041990 14.0575 112.530 27 -1 14.2877 113.598 1 29 1000 14.4075 112.852 TD 25 1000 4 295
1990164N14112 1990 37 WP MM NOT_NAMED 1990-06-14 06:00:00 TS 14.2636 112.800 main 380 357 O_OO__________ jtwc_wp WP041990 14.0000 112.600 30 -1 14.5000 113.000 1 29 1000 14.3000 112.800 TD 25 1000 4 265
1990164N14112 1990 37 WP MM NOT_NAMED 1990-06-14 09:00:00 TS 14.1842 112.593 main 357 335 P_PP__________ WP041990 13.8500 112.587 30 -1 14.5376 112.462 1 29 1000 14.1650 112.730 TD 25 1000 5 245
1990164N14112 1990 37 WP MM NOT_NAMED 1990-06-14 12:00:00 TS 14.0667 112.367 main 335 313 O_OO__________ jtwc_wp WP041990 13.7000 112.500 30 -1 14.5000 112.000 1 29 1000 14.0000 112.600 TD 25 1000 5 243
1990164N14112 1990 37 WP MM NOT_NAMED 1990-06-14 15:00:00 TS 13.9558 112.140 main 302 280 P_PP__________ WP041990 13.6125 112.357 30 -1 14.4998 111.713 1 29 1000 13.7551 112.350 TD 25 999 5 248
1990164N14112 1990 37 WP MM NOT_NAMED 1990-06-14 18:00:00 TS 13.9000 111.933 main 280 269 O_OO__________ jtwc_wp WP041990 13.6000 112.200 30 -1 14.5000 111.500 1 29 1000 13.6000 112.100 TD 25 998 4 273
1990164N14112 1990 37 WP MM NOT_NAMED 1990-06-14 21:00:00 TS 13.9732 111.763 main 270 249 P_PP__________ WP041990 13.6775 112.085 30 -1 14.4998 111.287 1 29 999 13.7424 111.918 TD 25 998 3 300
1990164N14112 1990 37 WP MM NOT_NAMED 1990-06-15 00:00:00 TS 14.0667 111.633 main 249 238 O_OO__________ jtwc_wp WP041990 13.8000 112.000 30 -1 14.5000 111.000 1 29 998 13.9000 111.900 TD 25 998 2 291
1990164N14112 1990 37 WP MM NOT_NAMED 1990-06-15 03:00:00 TS 14.0602 111.530 main 238 237 P_PP__________ WP041990 13.8925 111.898 30 -1 14.5004 110.463 1 29 998 13.7877 112.230 TD 27 996 2 259
1990164N14112 1990 37 WP MM NOT_NAMED 1990-06-15 06:00:00 TS 14.0333 111.467 main 237 227 O_OO__________ jtwc_wp WP041990 14.0000 111.900 30 -1 14.5000 110.000 1 29 998 13.6000 112.500 TD 30 995 1 250
1990164N14112 1990 37 WP MM NOT_NAMED 1990-06-15 09:00:00 TS 14.0300 111.452 main 237 237 P_PP__________ WP041990 14.1276 112.105 27 -1 14.4998 109.963 1 29 997 13.4626 112.290 TD 30 995 1 44
1990164N14112 1990 37 WP MM NOT_NAMED 1990-06-15 12:00:00 TS 14.0900 111.530 main 238 238 O_OO__________ jtwc_wp WP041990 14.3000 112.400 25 -1 14.5000 110.000 1 29 997 13.4000 111.900 TD 30 995 3 43
1990164N14112 1990 37 WP MM NOT_NAMED 1990-06-15 15:00:00 TS 14.2393 111.655 main 261 261 P_PP__________ WP041990 14.4973 112.613 25 -1 14.5002 109.825 1 26 998 13.4625 111.570 TD 27 996 7 49
1990164N14112 1990 37 WP MM NOT_NAMED 1990-06-15 18:00:00 TS 14.5500 112.067 main 311 309 O_OO__________ jtwc_wp WP041990 14.8000 112.900 25 -1 14.5000 109.500 1 23 1000 13.6000 111.300 TD 25 997 20 59
1990164N14112 1990 37 WP MM NOT_NAMED 1990-06-15 21:00:00 NR 15.2328 113.385 main 464 464 P_____________ WP041990 15.2328 113.385 22 -1 1 TD 22 55
1990164N14112 1990 37 WP MM NOT_NAMED 1990-06-16 00:00:00 NR 15.8000 113.900 main 492 475 O_____________ jtwc_wp WP041990 15.8000 113.900 20 -1 15 35
1990164N14112 1990 37 WP MM NOT_NAMED 1990-06-16 03:00:00 NR 16.4724 114.292 main 477 465 P_____________ WP041990 16.4724 114.292 20 -1 16 26
1990164N14112 1990 37 WP MM NOT_NAMED 1990-06-16 06:00:00 NR 17.2000 114.600 main 465 O_____________ jtwc_wp WP041990 17.2000 114.600 20 -1 16 22

Digital Typhoon Data and Search

About IBTrACS Database

This database is a web-friendly format of International Best Track Archive for Climate Stewardship (IBTrACS), a global best track data archive curated by NOAA dating back to 1842.

Updated: 2021-12-01